Time;durP1;ratioP1;P1;durP2;ratioP2;P2;SDS_P1;SDS_P2;PMS_P1;PMS_P2;Temp;Humidity;BMP_temperature;BMP_pressure;BME280_temperature;BME280_humidity;BME280_pressure;Samples;Min_cycle;Max_cycle;Signal;HPM_P1;HPM_P2
2023/11/23 00:01:44;;;;;;;19.90;13.80;;;;;;;8.60;48.60;102406.46;106137;1270;22546;-71
2023/11/23 00:04:12;;;;;;;18.70;14.30;;;;;;;8.61;48.66;102404.58;105675;1276;25411;-70
2023/11/23 00:06:40;;;;;;;18.20;14.40;;;;;;;8.63;48.65;102406.87;105375;1277;22560;-70
2023/11/23 00:09:09;;;;;;;20.90;14.80;;;;;;;8.64;48.70;102405.14;105475;1266;1016375;-70
2023/11/23 00:11:37;;;;;;;21.80;16.20;;;;;;;8.65;48.77;102405.83;106283;1262;22530;-70
2023/11/23 00:14:05;;;;;;;23.20;16.80;;;;;;;8.66;48.93;102403.09;106569;1261;22525;-71
2023/11/23 00:16:33;;;;;;;23.50;16.90;;;;;;;8.67;48.93;102405.68;106610;1274;22587;-70
2023/11/23 00:19:01;;;;;;;27.90;18.70;;;;;;;8.68;48.94;102411.06;106441;1260;22660;-70
2023/11/23 00:21:29;;;;;;;25.30;17.90;;;;;;;8.68;48.89;102409.67;106325;1261;22533;-70
2023/11/23 00:23:57;;;;;;;27.20;18.60;;;;;;;8.70;49.08;102408.33;105904;1258;1002990;-70
2023/11/23 00:26:25;;;;;;;30.00;20.40;;;;;;;8.72;49.33;102408.35;106601;1257;22547;-70
2023/11/23 00:28:55;;;;;;;28.10;20.00;;;;;;;8.73;49.28;102410.09;106616;1263;22696;-70
2023/11/23 00:31:23;;;;;;;29.40;21.10;;;;;;;8.72;49.14;102400.39;106515;1256;22707;-71
2023/11/23 00:33:51;;;;;;;30.60;21.20;;;;;;;8.73;49.40;102407.67;106634;1269;22605;-70
2023/11/23 00:36:20;;;;;;;34.50;22.60;;;;;;;8.76;49.46;102405.80;105745;1261;1003327;-70
2023/11/23 00:38:48;;;;;;;32.00;21.80;;;;;;;8.81;49.45;102401.54;106674;1257;22541;-70
2023/11/23 00:41:16;;;;;;;31.70;22.30;;;;;;;8.79;49.49;102404.10;106644;1266;22532;-70
2023/11/23 00:43:44;;;;;;;35.20;22.20;;;;;;;8.75;49.74;102400.79;106616;1263;22542;-71
2023/11/23 00:46:12;;;;;;;34.40;23.10;;;;;;;8.75;49.75;102406.48;106573;1264;25300;-70
2023/11/23 00:48:41;;;;;;;35.70;22.90;;;;;;;8.76;49.56;102409.61;106573;1258;22545;-71
2023/11/23 00:51:09;;;;;;;34.70;22.00;;;;;;;8.75;49.71;102412.54;106712;1260;22530;-71
2023/11/23 00:53:37;;;;;;;33.40;22.20;;;;;;;8.72;49.62;102414.23;106755;1265;24270;-70
2023/11/23 00:56:05;;;;;;;30.60;19.50;;;;;;;8.71;49.82;102407.14;106419;1261;22536;-70
2023/11/23 00:58:33;;;;;;;34.30;21.60;;;;;;;8.71;49.59;102405.57;106559;1258;22542;-71
2023/11/23 01:01:18;;;;;;;34.30;21.60;;;;;;;8.68;49.09;102404.84;106477;1258;22538;-70
2023/11/23 01:03:49;;;;;;;33.80;20.90;;;;;;;8.64;49.07;102404.45;106612;1255;22537;-71
2023/11/23 01:06:17;;;;;;;35.70;21.60;;;;;;;8.57;48.98;102399.68;106621;1252;22538;-70
2023/11/23 01:08:45;;;;;;;34.60;21.90;;;;;;;8.51;48.97;102402.56;106444;1259;22555;-70
2023/11/23 01:11:14;;;;;;;32.80;21.40;;;;;;;8.48;49.24;102402.34;106511;1260;24323;-70
2023/11/23 01:13:42;;;;;;;31.70;21.00;;;;;;;8.46;49.48;102404.92;106686;1268;22534;-70
2023/11/23 01:16:10;;;;;;;30.70;20.00;;;;;;;8.45;49.36;102407.66;106736;1271;22534;-70
2023/11/23 01:18:38;;;;;;;30.20;19.80;;;;;;;8.44;49.21;102410.76;106838;1257;22519;-70
2023/11/23 01:21:07;;;;;;;32.10;19.70;;;;;;;8.43;49.33;102413.52;106877;1260;22527;-70
2023/11/23 01:23:35;;;;;;;31.20;19.20;;;;;;;8.44;49.49;102413.54;106723;1262;22559;-70
2023/11/23 01:31:42;;;;;;;28.30;19.60;;;;;;;8.47;49.15;102408.89;103656;1293;545142;-70
2023/11/23 01:34:10;;;;;;;28.50;18.30;;;;;;;8.41;49.04;102408.81;105221;1272;1003520;-70
2023/11/23 01:36:38;;;;;;;24.20;18.10;;;;;;;8.38;48.66;102406.36;105865;1274;22552;-70
2023/11/23 01:39:07;;;;;;;26.00;18.40;;;;;;;8.34;48.72;102415.28;105779;1273;24303;-71
2023/11/23 01:41:35;;;;;;;27.80;17.60;;;;;;;8.30;48.79;102414.53;105871;1269;22574;-70
2023/11/23 01:44:03;;;;;;;25.30;17.70;;;;;;;8.28;48.69;102411.40;106307;1266;22540;-70
2023/11/23 01:46:31;;;;;;;21.90;16.40;;;;;;;8.26;48.96;102409.46;98783;1267;10287667;-69
2023/11/23 01:48:59;;;;;;;26.50;17.80;;;;;;;8.23;48.73;102407.16;106301;1274;22554;-68
2023/11/23 01:51:26;;;;;;;24.60;16.90;;;;;;;8.20;48.87;102408.50;106427;1259;22552;-69
2023/11/23 01:53:55;;;;;;;25.40;16.60;;;;;;;8.18;48.87;102416.95;106512;1264;22546;-71
2023/11/23 01:56:25;;;;;;;26.00;16.90;;;;;;;8.15;49.05;102415.70;106599;1264;22784;-69
2023/11/23 01:58:52;;;;;;;22.80;16.10;;;;;;;8.13;49.13;102408.57;106479;1259;25355;-69
2023/11/23 02:01:20;;;;;;;21.90;15.00;;;;;;;8.08;48.74;102411.61;106714;1260;22526;-71
2023/11/23 02:03:48;;;;;;;22.70;15.70;;;;;;;8.01;48.60;102412.20;106396;1273;22522;-71
2023/11/23 02:06:16;;;;;;;21.80;14.60;;;;;;;7.97;48.62;102418.02;106208;1260;22553;-69
2023/11/23 02:08:46;;;;;;;19.50;13.40;;;;;;;7.96;48.35;102429.04;106581;1254;22541;-69
2023/11/23 02:11:14;;;;;;;19.50;13.40;;;;;;;7.92;48.28;102432.60;106641;1254;25473;-70
2023/11/23 02:13:42;;;;;;;19.90;12.90;;;;;;;7.90;48.00;102433.09;106361;1260;22526;-69
2023/11/23 02:16:10;;;;;;;17.10;13.20;;;;;;;7.90;48.27;102424.80;105825;1256;1003033;-69
2023/11/23 02:18:37;;;;;;;18.50;12.90;;;;;;;7.92;48.38;102421.89;105722;1270;1003646;-70
2023/11/23 02:21:07;;;;;;;17.60;12.60;;;;;;;7.90;47.94;102425.66;106569;1259;22531;-69
2023/11/23 02:23:35;;;;;;;18.90;12.90;;;;;;;7.90;47.91;102431.88;106513;1256;22537;-69
2023/11/23 02:26:02;;;;;;;19.40;12.50;;;;;;;7.91;47.86;102432.59;106331;1272;22545;-69
2023/11/23 02:28:32;;;;;;;17.90;11.70;;;;;;;7.93;47.70;102435.56;106452;1254;22537;-69
2023/11/23 02:31:00;;;;;;;15.70;11.10;;;;;;;7.91;47.49;102446.41;106586;1259;24235;-69
2023/11/23 02:33:29;;;;;;;13.10;10.40;;;;;;;7.89;47.44;102454.33;106496;1261;22520;-69
2023/11/23 02:35:57;;;;;;;14.70;10.40;;;;;;;7.88;47.43;102452.94;106524;1259;25207;-69
2023/11/23 02:38:24;;;;;;;13.40;10.40;;;;;;;7.89;47.27;102458.98;106531;1258;25259;-70
2023/11/23 02:40:52;;;;;;;12.80;9.60;;;;;;;7.86;47.03;102459.29;106530;1261;22525;-69
2023/11/23 02:43:20;;;;;;;12.00;9.60;;;;;;;7.81;46.94;102452.64;106507;1260;26512;-69
2023/11/23 02:45:48;;;;;;;11.50;9.60;;;;;;;7.80;46.75;102447.27;106320;1261;25285;-69
2023/11/23 02:48:16;;;;;;;12.80;9.30;;;;;;;7.75;46.77;102446.50;106242;1262;22553;-69
2023/11/23 02:50:44;;;;;;;12.30;9.70;;;;;;;7.70;46.93;102449.18;106303;1262;25405;-69
2023/11/23 02:53:27;;;;;;;11.90;10.00;;;;;;;7.61;47.21;102457.66;106284;1263;22538;-69
2023/11/23 02:55:56;;;;;;;12.10;9.70;;;;;;;7.60;47.33;102459.55;105971;1260;1003755;-69
2023/11/23 02:58:23;;;;;;;11.80;9.70;;;;;;;7.51;47.68;102454.37;106704;1257;24938;-69
2023/11/23 03:00:51;;;;;;;13.00;9.80;;;;;;;7.48;47.51;102451.38;106573;1262;22578;-69
2023/11/23 03:03:19;;;;;;;12.40;9.80;;;;;;;7.44;47.50;102454.93;106691;1258;23858;-69
2023/11/23 03:05:47;;;;;;;13.60;8.80;;;;;;;7.43;47.38;102457.52;106736;1259;24236;-68
2023/11/23 03:08:15;;;;;;;11.40;9.10;;;;;;;7.41;47.51;102447.46;106722;1267;22529;-69
2023/11/23 03:10:44;;;;;;;12.20;9.00;;;;;;;7.39;47.39;102450.02;106796;1257;22519;-69
2023/11/23 03:13:12;;;;;;;12.50;9.00;;;;;;;7.38;47.66;102453.63;105995;1260;1002742;-68
2023/11/23 03:15:40;;;;;;;12.00;9.40;;;;;;;7.38;47.23;102455.35;105959;1259;1003779;-69
2023/11/23 03:18:07;;;;;;;11.10;9.40;;;;;;;7.36;46.92;102461.20;105887;1261;1003546;-69
2023/11/23 03:20:40;;;;;;;13.80;9.90;;;;;;;7.37;47.29;102466.20;106673;1262;23411;-69
2023/11/23 03:23:08;;;;;;;13.80;10.50;;;;;;;7.49;47.40;102469.35;106811;1256;25379;-68
2023/11/23 03:25:36;;;;;;;14.00;9.70;;;;;;;7.40;47.47;102473.52;106807;1257;22539;-69
2023/11/23 03:28:06;;;;;;;11.80;9.50;;;;;;;7.35;47.38;102472.21;106450;1262;22533;-69
2023/11/23 03:30:35;;;;;;;11.30;8.90;;;;;;;7.39;46.95;102476.26;106739;1256;22555;-68
2023/11/23 03:33:04;;;;;;;9.70;7.90;;;;;;;7.39;46.79;102479.19;106816;1257;25303;-69
2023/11/23 03:35:32;;;;;;;9.00;6.60;;;;;;;7.37;46.56;102477.61;106916;1259;25284;-69
2023/11/23 03:37:59;;;;;;;8.40;6.80;;;;;;;7.37;46.14;102478.29;106724;1257;23879;-69
2023/11/23 03:40:27;;;;;;;10.50;7.50;;;;;;;7.37;45.92;102479.33;106839;1272;22536;-68
2023/11/23 03:42:55;;;;;;;8.70;7.00;;;;;;;7.37;45.89;102482.95;106784;1259;22525;-69
2023/11/23 03:45:23;;;;;;;9.70;7.40;;;;;;;7.37;45.62;102479.85;106102;1259;1003730;-68
2023/11/23 03:47:54;;;;;;;8.70;7.20;;;;;;;7.35;45.43;102478.77;106827;1259;25379;-68
2023/11/23 03:50:24;;;;;;;8.10;6.70;;;;;;;7.32;45.27;102477.86;106745;1259;22545;-68
2023/11/23 03:52:52;;;;;;;9.70;7.80;;;;;;;7.28;45.29;102484.67;106728;1270;22533;-69
2023/11/23 03:55:19;;;;;;;11.00;7.10;;;;;;;7.28;45.50;102480.01;106728;1261;22981;-68
2023/11/23 03:57:47;;;;;;;10.80;7.60;;;;;;;7.32;45.54;102477.67;106598;1269;22538;-68
2023/11/23 04:00:20;;;;;;;10.00;7.70;;;;;;;7.31;45.49;102477.15;106750;1255;22547;-68
2023/11/23 04:02:48;;;;;;;10.30;8.30;;;;;;;7.33;45.48;102478.21;106541;1262;25351;-69
2023/11/23 04:05:17;;;;;;;9.60;7.70;;;;;;;7.30;45.46;102470.73;106635;1259;23875;-69
2023/11/23 04:07:46;;;;;;;12.00;8.40;;;;;;;7.31;45.79;102469.21;105849;1257;1003626;-68
2023/11/23 04:10:15;;;;;;;10.40;7.70;;;;;;;7.33;45.84;102477.17;106493;1256;22533;-69
2023/11/23 04:12:43;;;;;;;10.40;8.30;;;;;;;7.35;45.89;102480.17;106499;1259;22542;-69
2023/11/23 04:15:11;;;;;;;10.20;8.00;;;;;;;7.38;45.88;102483.30;106522;1259;22633;-69
2023/11/23 04:17:39;;;;;;;12.10;8.70;;;;;;;7.38;45.84;102484.34;106481;1259;22549;-69
2023/11/23 04:20:07;;;;;;;11.90;9.10;;;;;;;7.38;45.94;102480.38;106646;1257;26501;-69
2023/11/23 04:22:36;;;;;;;10.50;9.20;;;;;;;7.37;45.72;102483.63;105495;1262;1003036;-68
2023/11/23 04:25:05;;;;;;;10.50;8.30;;;;;;;7.32;45.69;102480.27;106260;1260;24419;-69
2023/11/23 04:27:33;;;;;;;10.90;8.10;;;;;;;7.30;45.63;102479.20;105741;1259;1003083;-69
2023/11/23 04:30:01;;;;;;;10.90;8.40;;;;;;;7.30;45.63;102475.21;106270;1262;25303;-69
2023/11/23 04:32:29;;;;;;;12.80;8.40;;;;;;;7.28;45.82;102466.02;106451;1256;23906;-69
2023/11/23 04:34:56;;;;;;;12.70;8.60;;;;;;;7.27;45.59;102470.16;106592;1253;22555;-69
2023/11/23 04:37:25;;;;;;;11.10;8.80;;;;;;;7.25;45.60;102469.95;106450;1260;22540;-69
2023/11/23 04:39:52;;;;;;;11.50;8.40;;;;;;;7.25;45.64;102469.95;105854;1259;1004118;-69
2023/11/23 04:42:20;;;;;;;11.20;8.40;;;;;;;7.26;45.70;102464.08;105976;1272;1003173;-69
2023/11/23 04:44:48;;;;;;;11.40;8.30;;;;;;;7.27;45.79;102465.16;105551;1262;1003633;-69
2023/11/23 04:47:15;;;;;;;12.70;9.60;;;;;;;7.28;45.77;102466.73;105968;1273;1002615;-69
2023/11/23 04:49:43;;;;;;;10.90;8.70;;;;;;;7.29;45.63;102469.16;106765;1256;22541;-69
2023/11/23 04:52:11;;;;;;;11.00;8.90;;;;;;;7.28;45.72;102467.25;106666;1256;24268;-68
2023/11/23 04:54:39;;;;;;;10.70;8.90;;;;;;;7.28;45.80;102471.39;106684;1260;22526;-69
2023/11/23 04:57:07;;;;;;;11.60;8.30;;;;;;;7.31;45.84;102475.23;106647;1260;25130;-68
2023/11/23 04:59:35;;;;;;;9.70;8.10;;;;;;;7.30;45.70;102482.29;106709;1259;24279;-69
2023/11/23 05:02:03;;;;;;;12.20;9.30;;;;;;;7.29;45.69;102485.73;106468;1264;22539;-69
2023/11/23 05:04:31;;;;;;;9.60;8.20;;;;;;;7.28;45.86;102482.09;106708;1259;22529;-69
2023/11/23 05:06:59;;;;;;;10.70;8.50;;;;;;;7.27;45.71;102481.02;106665;1273;22526;-69
2023/11/23 05:09:27;;;;;;;10.40;8.50;;;;;;;7.25;45.88;102482.21;106698;1262;26515;-69
2023/11/23 05:11:55;;;;;;;10.30;8.40;;;;;;;7.26;46.28;102480.67;106786;1259;22532;-69
2023/11/23 05:14:26;;;;;;;13.70;9.00;;;;;;;7.30;46.14;102483.86;106708;1256;22533;-68
2023/11/23 05:16:54;;;;;;;10.70;8.10;;;;;;;7.34;46.07;102487.38;106784;1257;22556;-68
2023/11/23 05:19:22;;;;;;;10.70;8.10;;;;;;;7.37;45.99;102486.05;106008;1256;1003012;-68
2023/11/23 05:22:06;;;;;;;11.30;8.90;;;;;;;7.40;45.64;102493.19;106880;1259;22538;-69
2023/11/23 05:24:34;;;;;;;11.70;8.00;;;;;;;7.39;45.67;102491.10;106680;1257;25246;-68
2023/11/23 05:27:02;;;;;;;12.00;8.80;;;;;;;7.38;45.51;102498.68;106798;1259;22522;-69
2023/11/23 05:29:29;;;;;;;11.20;8.80;;;;;;;7.35;45.47;102504.66;106807;1259;25469;-69
2023/11/23 05:31:57;;;;;;;12.30;8.40;;;;;;;7.31;45.55;102501.50;106739;1257;25243;-69
2023/11/23 05:34:25;;;;;;;11.30;8.60;;;;;;;7.30;45.73;102496.78;106529;1270;22537;-68
2023/11/23 05:36:53;;;;;;;11.00;8.60;;;;;;;7.31;45.64;102493.54;105694;1263;1003497;-69
2023/11/23 05:39:21;;;;;;;11.10;8.80;;;;;;;7.29;45.73;102495.75;106783;1259;22533;-68
2023/11/23 05:41:49;;;;;;;11.00;8.30;;;;;;;7.29;45.69;102493.15;106845;1261;22636;-68
2023/11/23 05:44:17;;;;;;;12.50;8.90;;;;;;;7.33;45.84;102488.91;106843;1269;25369;-68
2023/11/23 05:46:47;;;;;;;12.20;8.90;;;;;;;7.35;45.77;102496.05;106020;1256;1003685;-69
2023/11/23 05:49:17;;;;;;;10.80;8.10;;;;;;;7.33;45.69;102497.20;106845;1259;22533;-68
2023/11/23 05:51:45;;;;;;;10.10;8.10;;;;;;;7.34;45.57;102501.20;106811;1260;22545;-68
2023/11/23 05:54:12;;;;;;;10.80;8.70;;;;;;;7.36;45.62;102494.14;106683;1266;22533;-68
2023/11/23 05:56:41;;;;;;;13.80;9.00;;;;;;;7.39;45.79;102500.42;106735;1260;22534;-68
2023/11/23 05:59:09;;;;;;;10.20;8.20;;;;;;;7.44;45.82;102496.02;106726;1262;22572;-68
2023/11/23 06:01:37;;;;;;;11.90;8.60;;;;;;;7.49;45.59;102500.95;106370;1262;22548;-68
2023/11/23 06:04:05;;;;;;;10.80;8.90;;;;;;;7.52;45.52;102497.23;106564;1259;22529;-69
2023/11/23 06:06:33;;;;;;;10.70;8.40;;;;;;;7.54;45.39;102487.41;106460;1255;22578;-67
2023/11/23 06:09:01;;;;;;;10.10;8.60;;;;;;;7.55;45.34;102483.98;106412;1259;22533;-68
2023/11/23 06:11:29;;;;;;;9.80;8.60;;;;;;;7.55;45.39;102476.04;106434;1260;25348;-67
2023/11/23 06:13:57;;;;;;;11.10;8.00;;;;;;;7.55;45.35;102470.33;106575;1259;24208;-68
2023/11/23 06:16:24;;;;;;;9.60;8.20;;;;;;;7.56;45.48;102471.56;106415;1259;25313;-68
2023/11/23 06:18:52;;;;;;;11.80;9.20;;;;;;;7.57;45.39;102469.50;105563;1260;1003544;-67
2023/11/23 06:21:21;;;;;;;14.20;9.70;;;;;;;7.57;45.19;102463.63;106470;1256;22525;-68
2023/11/23 06:23:49;;;;;;;10.80;8.60;;;;;;;7.60;45.40;102461.26;106566;1256;22599;-67
2023/11/23 06:26:20;;;;;;;12.00;9.30;;;;;;;7.66;45.40;102460.52;106227;1262;26679;-67
2023/11/23 06:28:48;;;;;;;10.90;9.00;;;;;;;7.73;45.42;102454.59;106609;1256;26589;-67
2023/11/23 06:31:17;;;;;;;15.40;9.40;;;;;;;7.81;45.37;102453.68;106448;1261;22526;-67
2023/11/23 06:33:45;;;;;;;12.80;9.40;;;;;;;7.87;45.35;102455.51;106462;1270;22993;-67
2023/11/23 06:36:13;;;;;;;10.90;9.20;;;;;;;7.90;45.11;102454.35;106690;1259;22539;-68
2023/11/23 06:38:41;;;;;;;10.80;9.30;;;;;;;7.90;45.07;102456.41;106570;1259;22536;-69
2023/11/23 06:41:19;;;;;;;11.30;8.60;;;;;;;7.91;44.96;102455.05;106605;1276;22513;-69
2023/11/23 06:43:48;;;;;;;11.70;9.20;;;;;;;7.93;44.68;102449.39;106664;1256;22530;-69
2023/11/23 06:46:16;;;;;;;11.10;9.40;;;;;;;7.96;44.73;102439.77;106596;1258;24227;-67
2023/11/23 06:48:44;;;;;;;12.10;8.40;;;;;;;8.01;44.64;102439.15;106741;1256;25236;-69
2023/11/23 06:51:13;;;;;;;15.30;9.90;;;;;;;8.03;44.51;102432.61;106835;1256;22527;-67
2023/11/23 06:53:46;;;;;;;13.30;10.00;;;;;;;8.02;44.24;102428.09;106804;1257;22534;-67
2023/11/23 06:56:15;;;;;;;11.90;9.50;;;;;;;8.01;44.28;102431.73;106026;1256;1003139;-69
2023/11/23 06:58:46;;;;;;;10.40;8.60;;;;;;;8.06;44.25;102434.58;106765;1259;22832;-69
2023/11/23 07:01:15;;;;;;;13.30;9.30;;;;;;;8.13;44.05;102436.92;106840;1259;25285;-69
2023/11/23 07:03:43;;;;;;;11.60;9.40;;;;;;;8.15;43.95;102436.60;106776;1257;22663;-69
2023/11/23 07:06:11;;;;;;;12.40;9.40;;;;;;;8.15;44.05;102435.04;106784;1259;22541;-69
2023/11/23 07:08:40;;;;;;;12.20;9.60;;;;;;;8.17;44.43;102433.00;105782;1275;1003562;-69
2023/11/23 07:11:08;;;;;;;11.00;9.50;;;;;;;8.24;44.51;102433.45;106866;1259;22547;-69
2023/11/23 07:13:36;;;;;;;12.00;10.40;;;;;;;8.31;44.51;102414.38;106764;1258;22533;-70
2023/11/23 07:16:04;;;;;;;17.50;9.60;;;;;;;8.38;44.21;102409.80;106753;1256;22543;-69
2023/11/23 07:18:32;;;;;;;12.80;9.50;;;;;;;8.45;44.02;102401.79;106795;1259;22533;-69
2023/11/23 07:21:00;;;;;;;12.10;9.30;;;;;;;8.52;43.85;102394.79;106545;1265;22534;-70
2023/11/23 07:23:28;;;;;;;12.60;9.60;;;;;;;8.57;43.75;102393.98;106744;1270;25226;-69
2023/11/23 07:25:56;;;;;;;15.60;10.10;;;;;;;8.63;43.66;102390.95;106074;1268;1003488;-69
2023/11/23 07:28:27;;;;;;;13.00;10.00;;;;;;;8.65;43.25;102386.12;106039;1257;1003576;-70
2023/11/23 07:30:56;;;;;;;13.20;10.60;;;;;;;8.65;42.99;102382.48;106759;1261;22579;-70
2023/11/23 07:33:34;;;;;;;12.00;9.80;;;;;;;8.66;43.03;102377.83;106083;1259;1003534;-70
2023/11/23 07:36:03;;;;;;;12.20;9.30;;;;;;;8.68;43.12;102382.70;106059;1259;1003424;-70
2023/11/23 07:38:34;;;;;;;11.00;9.50;;;;;;;8.71;43.10;102384.64;106455;1265;22534;-70
2023/11/23 07:41:02;;;;;;;13.60;9.80;;;;;;;8.75;43.08;102365.99;106130;1257;1002956;-70
2023/11/23 07:43:30;;;;;;;14.70;9.70;;;;;;;8.78;42.81;102354.61;106780;1258;25249;-69
2023/11/23 07:46:00;;;;;;;11.70;9.80;;;;;;;8.76;42.42;102357.19;106794;1262;22525;-68
2023/11/23 07:48:29;;;;;;;14.30;9.40;;;;;;;8.71;42.53;102360.25;105989;1259;1003153;-69
2023/11/23 07:50:57;;;;;;;10.70;9.40;;;;;;;8.71;42.68;102357.65;106764;1259;24285;-69
2023/11/23 07:53:28;;;;;;;13.10;9.30;;;;;;;8.76;42.82;102360.13;106713;1272;22533;-69
2023/11/23 07:55:59;;;;;;;12.80;10.00;;;;;;;8.78;42.33;102366.02;106064;1259;1002883;-70
2023/11/23 07:58:26;;;;;;;14.90;10.40;;;;;;;8.76;42.52;102373.96;105923;1270;1003598;-69
2023/11/23 08:00:54;;;;;;;11.20;9.80;;;;;;;8.78;42.79;102379.69;105777;1261;1002979;-69
2023/11/23 08:03:22;;;;;;;14.30;10.30;;;;;;;8.82;42.99;102388.58;106515;1259;22535;-69
2023/11/23 08:05:51;;;;;;;12.70;9.40;;;;;;;8.85;42.96;102393.29;106537;1269;24262;-69
2023/11/23 08:08:21;;;;;;;16.70;10.70;;;;;;;8.89;43.05;102396.45;106629;1260;22583;-69
2023/11/23 08:10:49;;;;;;;12.20;9.20;;;;;;;8.96;42.90;102389.25;106406;1257;22529;-70
2023/11/23 08:13:17;;;;;;;11.30;8.80;;;;;;;9.04;42.55;102388.81;106507;1256;22562;-70
2023/11/23 08:15:45;;;;;;;12.90;9.50;;;;;;;9.10;42.58;102381.43;105775;1272;1003288;-68
2023/11/23 08:18:12;;;;;;;11.20;9.20;;;;;;;9.15;42.51;102382.52;106713;1260;22541;-68
2023/11/23 08:20:41;;;;;;;13.10;10.30;;;;;;;9.20;42.14;102381.70;106774;1256;22534;-68
2023/11/23 08:23:12;;;;;;;10.50;9.20;;;;;;;9.24;42.14;102371.90;106692;1257;25360;-68
2023/11/23 08:25:41;;;;;;;11.80;9.30;;;;;;;9.29;41.94;102375.91;106752;1272;22749;-68
2023/11/23 08:28:09;;;;;;;11.20;8.80;;;;;;;9.33;41.86;102372.30;106762;1275;22527;-68
2023/11/23 08:30:36;;;;;;;11.50;9.80;;;;;;;9.36;41.76;102369.57;106822;1260;22525;-68
2023/11/23 08:33:05;;;;;;;12.50;9.50;;;;;;;9.39;41.58;102360.06;106759;1259;22538;-68
2023/11/23 08:35:33;;;;;;;11.80;9.30;;;;;;;9.40;41.54;102342.40;106561;1262;22550;-68
2023/11/23 08:38:01;;;;;;;12.30;10.10;;;;;;;9.39;41.67;102347.42;106769;1259;22550;-68
2023/11/23 08:40:29;;;;;;;13.90;10.00;;;;;;;9.38;41.84;102348.98;106702;1257;22537;-68
2023/11/23 08:42:57;;;;;;;10.80;8.80;;;;;;;9.40;42.07;102344.30;106722;1262;22535;-70
2023/11/23 08:45:25;;;;;;;12.10;9.10;;;;;;;9.43;42.28;102342.77;106824;1259;22559;-68
2023/11/23 08:47:53;;;;;;;14.30;9.80;;;;;;;9.45;42.19;102344.18;106791;1256;22532;-68
2023/11/23 08:50:21;;;;;;;15.10;10.00;;;;;;;9.49;42.00;102336.42;106816;1258;22524;-68
2023/11/23 08:52:49;;;;;;;10.10;8.80;;;;;;;9.54;41.89;102325.88;106783;1269;25246;-71
2023/11/23 08:55:17;;;;;;;12.70;9.80;;;;;;;9.59;41.64;102330.06;106831;1257;22525;-70
2023/11/23 08:57:46;;;;;;;11.40;8.80;;;;;;;9.62;41.65;102339.45;106713;1260;22546;-70
2023/11/23 09:00:16;;;;;;;10.60;8.80;;;;;;;9.62;41.42;102341.36;106770;1259;22622;-70
2023/11/23 09:02:44;;;;;;;13.00;9.60;;;;;;;9.60;41.48;102334.23;106781;1256;22530;-70
2023/11/23 09:05:12;;;;;;;11.90;9.00;;;;;;;9.60;41.49;102330.09;106720;1267;22521;-70
2023/11/23 09:07:40;;;;;;;14.60;8.90;;;;;;;9.63;41.47;102327.67;106738;1263;25493;-70
2023/11/23 09:10:09;;;;;;;13.10;9.30;;;;;;;9.63;41.53;102326.30;106752;1259;22533;-70
2023/11/23 09:12:37;;;;;;;10.20;9.10;;;;;;;9.61;41.54;102316.41;106833;1261;24196;-69
2023/11/23 09:15:07;;;;;;;11.50;8.80;;;;;;;9.61;41.43;102307.74;106791;1272;24297;-69
2023/11/23 09:17:36;;;;;;;13.30;9.90;;;;;;;9.59;41.23;102294.91;106607;1259;25401;-69
2023/11/23 09:20:08;;;;;;;12.80;9.50;;;;;;;9.58;41.46;102276.20;106506;1264;22533;-70
2023/11/23 09:22:36;;;;;;;11.80;10.00;;;;;;;9.56;41.54;102264.73;106956;1273;25360;-71
2023/11/23 09:25:06;;;;;;;14.50;10.40;;;;;;;9.53;41.44;102268.52;106826;1262;25281;-72
2023/11/23 09:27:36;;;;;;;10.90;9.70;;;;;;;9.46;41.24;102270.23;106198;1262;1002875;-73
2023/11/23 09:30:08;;;;;;;12.30;10.30;;;;;;;9.38;41.60;102268.95;106983;1269;24200;-70
2023/11/23 09:32:39;;;;;;;12.20;9.90;;;;;;;9.31;41.87;102259.73;106799;1272;25359;-71
2023/11/23 09:35:10;;;;;;;14.60;10.30;;;;;;;9.27;42.37;102250.17;106756;1261;22581;-71
2023/11/23 09:37:39;;;;;;;17.10;10.20;;;;;;;9.25;42.13;102240.12;106900;1259;22530;-72
2023/11/23 09:40:09;;;;;;;11.30;9.30;;;;;;;9.22;42.06;102234.38;106713;1269;22558;-72
2023/11/23 09:42:38;;;;;;;12.30;10.00;;;;;;;9.20;42.18;102234.88;106665;1270;25246;-72
2023/11/23 09:45:07;;;;;;;16.10;9.40;;;;;;;9.19;42.57;102230.70;106714;1264;22567;-73
2023/11/23 09:47:35;;;;;;;13.60;9.90;;;;;;;9.17;42.65;102228.80;106818;1259;22628;-71
2023/11/23 09:50:04;;;;;;;13.20;9.60;;;;;;;9.12;42.57;102223.05;106563;1274;22546;-72
2023/11/23 09:52:33;;;;;;;11.00;9.20;;;;;;;9.10;42.66;102218.36;106678;1261;24090;-73
2023/11/23 09:55:02;;;;;;;12.20;8.80;;;;;;;9.09;42.57;102214.36;105662;1276;1003407;-71
2023/11/23 09:57:30;;;;;;;10.20;8.70;;;;;;;9.11;42.73;102211.61;106467;1272;25268;-72
2023/11/23 09:59:58;;;;;;;10.70;9.00;;;;;;;9.13;42.75;102206.78;106666;1264;22536;-69
2023/11/23 10:02:30;;;;;;;10.80;9.50;;;;;;;9.15;42.71;102198.48;106961;1259;25239;-73
2023/11/23 10:05:01;;;;;;;12.80;10.00;;;;;;;9.15;42.81;102193.47;107053;1269;22649;-70
2023/11/23 10:07:28;;;;;;;11.60;9.10;;;;;;;9.16;42.59;102185.51;106246;1253;1002407;-74
2023/11/23 10:09:56;;;;;;;11.80;8.90;;;;;;;9.16;42.39;102173.21;106844;1262;22532;-71
2023/11/23 10:12:26;;;;;;;11.60;9.70;;;;;;;9.15;42.39;102166.11;105984;1272;1003152;-69
2023/11/23 10:14:54;;;;;;;12.30;10.40;;;;;;;9.14;42.36;102153.64;106783;1275;24352;-69
2023/11/23 10:17:22;;;;;;;13.00;9.50;;;;;;;9.13;42.34;102144.28;106339;1276;22556;-73
2023/11/23 10:19:50;;;;;;;12.30;9.10;;;;;;;9.11;42.46;102129.21;106843;1272;24202;-72
2023/11/23 10:22:17;;;;;;;12.90;10.50;;;;;;;9.10;42.75;102117.61;106474;1276;22718;-71
2023/11/23 10:24:49;;;;;;;10.50;9.30;;;;;;;9.12;42.77;102102.39;106618;1266;22537;-72
2023/11/23 10:27:18;;;;;;;17.90;10.80;;;;;;;9.16;42.69;102096.70;106869;1259;22566;-72
2023/11/23 10:29:46;;;;;;;12.60;9.70;;;;;;;9.20;42.91;102084.76;106768;1259;23152;-73
2023/11/23 10:32:17;;;;;;;11.60;9.30;;;;;;;9.23;42.83;102071.27;106477;1265;24650;-71
2023/11/23 10:34:45;;;;;;;13.20;10.50;;;;;;;9.26;42.82;102074.92;106764;1261;25307;-71
2023/11/23 10:37:19;;;;;;;11.30;9.30;;;;;;;9.29;42.90;102078.23;106367;1265;24214;-71
2023/11/23 10:39:47;;;;;;;13.30;10.30;;;;;;;9.31;42.87;102064.91;106752;1277;25472;-71
2023/11/23 10:42:15;;;;;;;14.40;10.70;;;;;;;9.32;42.86;102061.63;106743;1276;26170;-72
2023/11/23 10:44:42;;;;;;;18.70;11.90;;;;;;;9.34;43.02;102064.23;105985;1259;1003762;-72
2023/11/23 10:47:10;;;;;;;16.70;11.90;;;;;;;9.34;43.36;102062.67;106740;1275;25351;-71
2023/11/23 10:49:40;;;;;;;14.30;10.30;;;;;;;9.34;43.34;102055.92;107049;1273;22537;-72
2023/11/23 10:52:08;;;;;;;15.50;10.30;;;;;;;9.35;43.38;102045.02;106738;1273;24289;-72
2023/11/23 10:54:37;;;;;;;13.50;10.60;;;;;;;9.36;43.59;102041.20;106298;1259;1002943;-71
2023/11/23 10:57:05;;;;;;;12.50;10.30;;;;;;;9.38;43.56;102043.29;106795;1274;22651;-71
2023/11/23 10:59:33;;;;;;;10.90;9.20;;;;;;;9.39;43.54;102038.45;106628;1276;25379;-71
2023/11/23 11:02:01;;;;;;;12.00;9.10;;;;;;;9.39;43.54;102036.20;106641;1270;22817;-70
2023/11/23 11:04:29;;;;;;;11.60;9.60;;;;;;;9.42;43.37;102031.88;106155;1259;25175;-71
2023/11/23 11:06:57;;;;;;;12.80;11.00;;;;;;;9.43;43.83;102031.19;106705;1273;22680;-72
2023/11/23 11:09:25;;;;;;;12.60;10.40;;;;;;;9.43;44.01;102023.05;106357;1276;26516;-71
2023/11/23 11:12:00;;;;;;;13.10;10.50;;;;;;;9.44;44.15;102021.66;106642;1256;23883;-71
2023/11/23 11:14:35;;;;;;;13.40;10.80;;;;;;;9.44;44.04;102015.08;106696;1275;23903;-70
2023/11/23 11:17:05;;;;;;;16.00;11.30;;;;;;;9.46;44.25;102000.02;106661;1262;24215;-70
2023/11/23 11:19:48;;;;;;;15.10;10.80;;;;;;;9.46;44.09;101998.98;106106;1260;1002937;-70
2023/11/23 11:22:17;;;;;;;13.40;11.10;;;;;;;9.44;44.18;102000.36;106627;1272;25366;-71
2023/11/23 11:24:45;;;;;;;15.00;11.50;;;;;;;9.43;44.36;102005.21;106906;1272;22646;-73